sensor_id;sensor_type;location;lat;lon;timestamp;pressure;altitude;pressure_sealevel;temperature;humidity
1401;BME280;46518;48.842;8.926;2022-12-07T00:01:46;97194.16;;;3.61;95.52
1401;BME280;46518;48.842;8.926;2022-12-07T00:04:16;97187.38;;;3.67;95.69
1401;BME280;46518;48.842;8.926;2022-12-07T00:06:46;97185.16;;;3.64;95.58
1401;BME280;46518;48.842;8.926;2022-12-07T00:09:18;97190.38;;;3.77;95.28
1401;BME280;46518;48.842;8.926;2022-12-07T00:11:48;97191.78;;;3.73;94.50
1401;BME280;46518;48.842;8.926;2022-12-07T00:14:17;97193.97;;;3.76;94.48
1401;BME280;46518;48.842;8.926;2022-12-07T00:16:48;97195.78;;;3.76;93.67
1401;BME280;46518;48.842;8.926;2022-12-07T00:19:17;97186.56;;;3.73;93.66
1401;BME280;46518;48.842;8.926;2022-12-07T00:21:45;97186.56;;;3.60;94.09
1401;BME280;46518;48.842;8.926;2022-12-07T00:24:14;97184.56;;;3.75;93.59
1401;BME280;46518;48.842;8.926;2022-12-07T00:26:42;97192.16;;;3.83;93.24
1401;BME280;46518;48.842;8.926;2022-12-07T00:29:15;97186.75;;;3.92;92.88
1401;BME280;46518;48.842;8.926;2022-12-07T00:31:43;97186.56;;;4.06;92.54
1401;BME280;46518;48.842;8.926;2022-12-07T00:34:15;97185.38;;;4.02;91.93
1401;BME280;46518;48.842;8.926;2022-12-07T00:36:44;97186.16;;;3.96;91.62
1401;BME280;46518;48.842;8.926;2022-12-07T00:39:12;97187.97;;;4.02;91.73
1401;BME280;46518;48.842;8.926;2022-12-07T00:41:40;97188.56;;;4.11;91.39
1401;BME280;46518;48.842;8.926;2022-12-07T00:44:09;97178.13;;;4.18;91.30
1401;BME280;46518;48.842;8.926;2022-12-07T00:46:37;97178.53;;;4.21;91.10
1401;BME280;46518;48.842;8.926;2022-12-07T00:49:05;97179.53;;;4.14;91.24
1401;BME280;46518;48.842;8.926;2022-12-07T00:51:35;97173.53;;;4.20;90.94
1401;BME280;46518;48.842;8.926;2022-12-07T00:54:03;97176.50;;;4.30;90.83
1401;BME280;46518;48.842;8.926;2022-12-07T00:56:32;97181.31;;;4.33;90.94
1401;BME280;46518;48.842;8.926;2022-12-07T00:59:02;97192.53;;;4.47;90.25
1401;BME280;46518;48.842;8.926;2022-12-07T01:01:32;97186.34;;;4.35;90.11
1401;BME280;46518;48.842;8.926;2022-12-07T01:04:01;97170.69;;;4.28;89.64
1401;BME280;46518;48.842;8.926;2022-12-07T01:06:30;97185.69;;;4.52;89.43
1401;BME280;46518;48.842;8.926;2022-12-07T01:09:00;97181.28;;;4.46;89.38
1401;BME280;46518;48.842;8.926;2022-12-07T01:11:31;97168.66;;;4.37;89.08
1401;BME280;46518;48.842;8.926;2022-12-07T01:14:00;97180.72;;;4.38;89.14
1401;BME280;46518;48.842;8.926;2022-12-07T01:16:30;97185.94;;;4.24;89.40
1401;BME280;46518;48.842;8.926;2022-12-07T01:19:00;97189.94;;;4.14;89.48
1401;BME280;46518;48.842;8.926;2022-12-07T01:21:30;97188.56;;;3.98;90.38
1401;BME280;46518;48.842;8.926;2022-12-07T01:24:04;97186.56;;;3.86;91.24
1401;BME280;46518;48.842;8.926;2022-12-07T01:26:32;97199.00;;;3.84;92.15
1401;BME280;46518;48.842;8.926;2022-12-07T01:29:01;97191.78;;;3.73;92.88
1401;BME280;46518;48.842;8.926;2022-12-07T01:31:29;97192.94;;;3.64;93.24
1401;BME280;46518;48.842;8.926;2022-12-07T01:33:59;97201.38;;;3.73;92.78
1401;BME280;46518;48.842;8.926;2022-12-07T01:36:28;97203.19;;;3.72;93.21
1401;BME280;46518;48.842;8.926;2022-12-07T01:38:59;97197.56;;;3.62;93.45
1401;BME280;46518;48.842;8.926;2022-12-07T01:41:30;97197.94;;;3.59;93.93
1401;BME280;46518;48.842;8.926;2022-12-07T01:44:22;97198.97;;;3.64;93.80
1401;BME280;46518;48.842;8.926;2022-12-07T01:46:51;97200.34;;;3.54;94.89
1401;BME280;46518;48.842;8.926;2022-12-07T01:49:24;97201.16;;;3.54;95.05
1401;BME280;46518;48.842;8.926;2022-12-07T01:51:58;97173.31;;;3.35;94.94
1401;BME280;46518;48.842;8.926;2022-12-07T01:54:29;97203.53;;;3.42;95.48
1401;BME280;46518;48.842;8.926;2022-12-07T01:57:00;97204.56;;;3.48;95.97
1401;BME280;46518;48.842;8.926;2022-12-07T01:59:28;97203.16;;;3.45;95.20
1401;BME280;46518;48.842;8.926;2022-12-07T02:01:57;97200.72;;;3.44;96.24
1401;BME280;46518;48.842;8.926;2022-12-07T02:04:25;97201.13;;;3.41;95.69
1401;BME280;46518;48.842;8.926;2022-12-07T02:06:54;97198.94;;;3.38;96.43
1401;BME280;46518;48.842;8.926;2022-12-07T02:09:22;97192.31;;;3.35;97.01
1401;BME280;46518;48.842;8.926;2022-12-07T02:11:51;97188.06;;;3.21;96.25
1401;BME280;46518;48.842;8.926;2022-12-07T02:14:21;97195.53;;;3.37;96.59
1401;BME280;46518;48.842;8.926;2022-12-07T02:16:58;97202.56;;;3.50;96.06
1401;BME280;46518;48.842;8.926;2022-12-07T02:19:59;97192.94;;;3.37;97.24
1401;BME280;46518;48.842;8.926;2022-12-07T02:25:33;97182.88;;;3.21;96.27
1401;BME280;46518;48.842;8.926;2022-12-07T02:28:15;97183.91;;;3.33;96.63
1401;BME280;46518;48.842;8.926;2022-12-07T02:30:49;97184.28;;;3.23;96.11
1401;BME280;46518;48.842;8.926;2022-12-07T02:33:29;97180.13;;;3.42;96.40
1401;BME280;46518;48.842;8.926;2022-12-07T02:36:02;97181.13;;;3.48;96.77
1401;BME280;46518;48.842;8.926;2022-12-07T02:38:36;97171.50;;;3.35;96.45
1401;BME280;46518;48.842;8.926;2022-12-07T02:41:09;97168.69;;;3.37;96.92
1401;BME280;46518;48.842;8.926;2022-12-07T02:43:47;97174.06;;;3.22;97.73
1401;BME280;46518;48.842;8.926;2022-12-07T02:46:23;97174.88;;;3.29;97.48
1401;BME280;46518;48.842;8.926;2022-12-07T02:48:54;97175.31;;;3.39;97.02
1401;BME280;46518;48.842;8.926;2022-12-07T02:51:22;97167.69;;;3.31;96.49
1401;BME280;46518;48.842;8.926;2022-12-07T02:53:51;97165.91;;;3.38;96.80
1401;BME280;46518;48.842;8.926;2022-12-07T02:56:26;97169.91;;;3.41;96.27
1401;BME280;46518;48.842;8.926;2022-12-07T02:59:02;97163.13;;;3.40;96.06
1401;BME280;46518;48.842;8.926;2022-12-07T03:01:46;97158.09;;;3.38;96.31
1401;BME280;46518;48.842;8.926;2022-12-07T03:04:28;97159.31;;;3.36;96.03
1401;BME280;46518;48.842;8.926;2022-12-07T03:07:05;97166.13;;;3.43;96.41
1401;BME280;46518;48.842;8.926;2022-12-07T03:09:44;97161.72;;;3.44;96.19
1401;BME280;46518;48.842;8.926;2022-12-07T03:12:19;97159.31;;;3.42;96.07
1401;BME280;46518;48.842;8.926;2022-12-07T03:14:55;97168.31;;;3.33;96.41
1401;BME280;46518;48.842;8.926;2022-12-07T03:17:31;97166.72;;;3.32;95.97
1401;BME280;46518;48.842;8.926;2022-12-07T03:20:04;97165.69;;;3.27;96.72
1401;BME280;46518;48.842;8.926;2022-12-07T03:22:35;97161.50;;;3.32;96.72
1401;BME280;46518;48.842;8.926;2022-12-07T03:25:10;97161.09;;;3.29;96.61
1401;BME280;46518;48.842;8.926;2022-12-07T03:27:41;97159.69;;;3.26;96.68
1401;BME280;46518;48.842;8.926;2022-12-07T03:30:15;97144.28;;;3.31;96.83
1401;BME280;46518;48.842;8.926;2022-12-07T03:32:48;97147.09;;;3.30;96.41
1401;BME280;46518;48.842;8.926;2022-12-07T03:35:23;97154.69;;;3.31;96.39
1401;BME280;46518;48.842;8.926;2022-12-07T03:37:55;97154.09;;;3.22;96.60
1401;BME280;46518;48.842;8.926;2022-12-07T03:40:29;97158.09;;;3.25;96.50
1401;BME280;46518;48.842;8.926;2022-12-07T03:43:00;97159.50;;;3.28;96.65
1401;BME280;46518;48.842;8.926;2022-12-07T03:45:33;97147.31;;;3.35;96.72
1401;BME280;46518;48.842;8.926;2022-12-07T03:48:08;97148.50;;;3.39;96.54
1401;BME280;46518;48.842;8.926;2022-12-07T03:50:44;97158.91;;;3.39;96.02
1401;BME280;46518;48.842;8.926;2022-12-07T03:53:19;97147.50;;;3.46;96.15
1401;BME280;46518;48.842;8.926;2022-12-07T03:55:50;97150.31;;;3.52;95.94
1401;BME280;46518;48.842;8.926;2022-12-07T03:58:21;97146.31;;;3.56;95.18
1401;BME280;46518;48.842;8.926;2022-12-07T04:00:51;97143.50;;;3.64;94.96
1401;BME280;46518;48.842;8.926;2022-12-07T04:03:21;97145.50;;;3.62;94.43
1401;BME280;46518;48.842;8.926;2022-12-07T04:05:58;97140.91;;;3.64;94.03
1401;BME280;46518;48.842;8.926;2022-12-07T04:08:27;97137.50;;;3.63;93.56
1401;BME280;46518;48.842;8.926;2022-12-07T04:10:57;97125.91;;;3.66;92.93
1401;BME280;46518;48.842;8.926;2022-12-07T04:13:25;97119.72;;;3.67;91.86
1401;BME280;46518;48.842;8.926;2022-12-07T04:16:06;97116.88;;;3.62;90.50
1401;BME280;46518;48.842;8.926;2022-12-07T04:18:35;97114.69;;;3.59;90.44
1401;BME280;46518;48.842;8.926;2022-12-07T04:21:04;97120.69;;;3.59;90.04
1401;BME280;46518;48.842;8.926;2022-12-07T04:23:32;97105.88;;;3.60;89.35
1401;BME280;46518;48.842;8.926;2022-12-07T04:26:00;97103.47;;;3.52;89.10
1401;BME280;46518;48.842;8.926;2022-12-07T04:28:28;97102.91;;;3.50;87.72
1401;BME280;46518;48.842;8.926;2022-12-07T04:30:57;97106.91;;;3.52;87.07
1401;BME280;46518;48.842;8.926;2022-12-07T04:33:26;97104.47;;;3.51;85.22
1401;BME280;46518;48.842;8.926;2022-12-07T04:35:55;97102.47;;;3.46;84.31
1401;BME280;46518;48.842;8.926;2022-12-07T04:38:23;97101.50;;;3.47;83.86
1401;BME280;46518;48.842;8.926;2022-12-07T04:40:51;97084.66;;;3.36;82.98
1401;BME280;46518;48.842;8.926;2022-12-07T04:43:19;97106.06;;;3.52;82.83
1401;BME280;46518;48.842;8.926;2022-12-07T04:45:48;97103.69;;;3.43;82.75
1401;BME280;46518;48.842;8.926;2022-12-07T04:48:17;97109.66;;;3.24;85.03
1401;BME280;46518;48.842;8.926;2022-12-07T04:50:48;97113.66;;;3.13;86.44
1401;BME280;46518;48.842;8.926;2022-12-07T04:53:18;97109.66;;;3.11;86.77
1401;BME280;46518;48.842;8.926;2022-12-07T04:55:46;97112.22;;;3.04;87.05
1401;BME280;46518;48.842;8.926;2022-12-07T04:58:15;97110.00;;;2.94;86.41
1401;BME280;46518;48.842;8.926;2022-12-07T05:00:43;97107.81;;;2.91;85.38
1401;BME280;46518;48.842;8.926;2022-12-07T05:03:11;97119.00;;;2.85;85.72
1401;BME280;46518;48.842;8.926;2022-12-07T05:05:40;97116.41;;;2.85;85.11
1401;BME280;46518;48.842;8.926;2022-12-07T05:08:08;97120.56;;;2.73;85.46
1401;BME280;46518;48.842;8.926;2022-12-07T05:10:38;97126.06;;;2.50;86.42
1401;BME280;46518;48.842;8.926;2022-12-07T05:13:06;97130.22;;;2.44;87.95
1401;BME280;46518;48.842;8.926;2022-12-07T05:15:34;97142.63;;;2.42;88.16
1401;BME280;46518;48.842;8.926;2022-12-07T05:18:03;97141.56;;;2.36;87.38
1401;BME280;46518;48.842;8.926;2022-12-07T05:20:31;97137.00;;;2.38;86.95
1401;BME280;46518;48.842;8.926;2022-12-07T05:23:08;97129.69;;;2.55;86.98
1401;BME280;46518;48.842;8.926;2022-12-07T05:25:38;97122.28;;;2.59;86.79
1401;BME280;46518;48.842;8.926;2022-12-07T05:28:06;97129.53;;;2.70;86.66
1401;BME280;46518;48.842;8.926;2022-12-07T05:30:34;97122.78;;;2.83;86.57
1401;BME280;46518;48.842;8.926;2022-12-07T05:33:02;97117.81;;;2.88;86.28
1401;BME280;46518;48.842;8.926;2022-12-07T05:35:32;97127.19;;;2.89;85.52
1401;BME280;46518;48.842;8.926;2022-12-07T05:38:00;97118.78;;;2.87;85.65
1401;BME280;46518;48.842;8.926;2022-12-07T05:40:28;97123.78;;;2.81;85.59
1401;BME280;46518;48.842;8.926;2022-12-07T05:42:57;97122.78;;;2.83;85.81
1401;BME280;46518;48.842;8.926;2022-12-07T05:45:30;97122.78;;;2.83;86.20
1401;BME280;46518;48.842;8.926;2022-12-07T05:47:59;97131.34;;;2.76;86.47
1401;BME280;46518;48.842;8.926;2022-12-07T05:50:27;97135.50;;;2.57;86.43
1401;BME280;46518;48.842;8.926;2022-12-07T05:53:01;97126.66;;;2.45;87.32
1401;BME280;46518;48.842;8.926;2022-12-07T05:55:30;97107.81;;;2.30;87.78
1401;BME280;46518;48.842;8.926;2022-12-07T05:57:59;97113.34;;;2.27;88.75
1401;BME280;46518;48.842;8.926;2022-12-07T06:00:44;97121.97;;;2.27;89.90
1401;BME280;46518;48.842;8.926;2022-12-07T06:03:17;97132.34;;;2.27;90.30
1401;BME280;46518;48.842;8.926;2022-12-07T06:05:48;97125.34;;;2.28;90.42
1401;BME280;46518;48.842;8.926;2022-12-07T06:08:17;97131.34;;;2.28;90.20
1401;BME280;46518;48.842;8.926;2022-12-07T06:10:47;97137.69;;;2.19;89.67
1401;BME280;46518;48.842;8.926;2022-12-07T06:13:37;97133.09;;;2.21;89.37
1401;BME280;46518;48.842;8.926;2022-12-07T06:16:12;97134.94;;;2.27;88.72
1401;BME280;46518;48.842;8.926;2022-12-07T06:18:41;97136.13;;;2.25;88.08
1401;BME280;46518;48.842;8.926;2022-12-07T06:21:09;97134.34;;;2.32;87.84
1401;BME280;46518;48.842;8.926;2022-12-07T06:23:37;97135.81;;;2.41;88.29
1401;BME280;46518;48.842;8.926;2022-12-07T06:26:05;97138.63;;;2.46;88.12
1401;BME280;46518;48.842;8.926;2022-12-07T06:28:33;97144.22;;;2.43;88.07
1401;BME280;46518;48.842;8.926;2022-12-07T06:31:03;97143.59;;;2.41;87.68
1401;BME280;46518;48.842;8.926;2022-12-07T06:33:38;97136.31;;;2.23;85.39
1401;BME280;46518;48.842;8.926;2022-12-07T06:36:06;97138.00;;;2.37;85.95
1401;BME280;46518;48.842;8.926;2022-12-07T06:38:35;97140.59;;;2.44;85.82
1401;BME280;46518;48.842;8.926;2022-12-07T06:41:03;97138.84;;;2.51;85.90
1401;BME280;46518;48.842;8.926;2022-12-07T06:43:31;97140.25;;;2.54;86.05
1401;BME280;46518;48.842;8.926;2022-12-07T06:45:59;97142.66;;;2.55;85.86
1401;BME280;46518;48.842;8.926;2022-12-07T06:48:29;97141.03;;;2.48;86.43
1401;BME280;46518;48.842;8.926;2022-12-07T06:50:57;97130.25;;;2.51;86.70
1401;BME280;46518;48.842;8.926;2022-12-07T06:53:26;97123.91;;;2.60;86.42
1401;BME280;46518;48.842;8.926;2022-12-07T06:55:54;97123.13;;;2.66;85.79
1401;BME280;46518;48.842;8.926;2022-12-07T06:58:22;97121.94;;;2.69;85.72
1401;BME280;46518;48.842;8.926;2022-12-07T07:00:50;97130.34;;;2.71;85.93
1401;BME280;46518;48.842;8.926;2022-12-07T07:03:19;97130.72;;;2.68;85.44
1401;BME280;46518;48.842;8.926;2022-12-07T07:05:48;97136.13;;;2.66;86.02
1401;BME280;46518;48.842;8.926;2022-12-07T07:08:16;97139.91;;;2.64;86.22
1401;BME280;46518;48.842;8.926;2022-12-07T07:10:48;97140.13;;;2.62;86.16
1401;BME280;46518;48.842;8.926;2022-12-07T07:13:16;97138.06;;;2.51;86.07
1401;BME280;46518;48.842;8.926;2022-12-07T07:15:45;97126.66;;;2.45;87.19
1401;BME280;46518;48.842;8.926;2022-12-07T07:18:13;97130.25;;;2.51;86.61
1401;BME280;46518;48.842;8.926;2022-12-07T07:20:41;97145.50;;;2.61;86.41
1401;BME280;46518;48.842;8.926;2022-12-07T07:23:11;97142.94;;;2.67;86.69
1401;BME280;46518;48.842;8.926;2022-12-07T07:25:59;97135.34;;;2.79;85.25
1401;BME280;46518;48.842;8.926;2022-12-07T07:28:27;97133.19;;;2.83;84.74
1401;BME280;46518;48.842;8.926;2022-12-07T07:31:03;97117.75;;;2.74;84.06
1401;BME280;46518;48.842;8.926;2022-12-07T07:33:31;97138.00;;;2.92;83.75
1401;BME280;46518;48.842;8.926;2022-12-07T07:35:59;97147.63;;;2.98;83.00
1401;BME280;46518;48.842;8.926;2022-12-07T07:38:29;97149.66;;;3.10;82.62
1401;BME280;46518;48.842;8.926;2022-12-07T07:40:57;97151.66;;;3.14;82.67
1401;BME280;46518;48.842;8.926;2022-12-07T07:43:25;97139.03;;;3.11;82.86
1401;BME280;46518;48.842;8.926;2022-12-07T07:45:54;97156.50;;;3.37;82.81
1401;BME280;46518;48.842;8.926;2022-12-07T07:48:22;97158.72;;;3.54;81.48
1401;BME280;46518;48.842;8.926;2022-12-07T07:50:52;97155.13;;;3.55;80.86
1401;BME280;46518;48.842;8.926;2022-12-07T07:53:20;97161.53;;;3.59;81.03
1401;BME280;46518;48.842;8.926;2022-12-07T07:55:53;97157.75;;;3.55;79.79
1401;BME280;46518;48.842;8.926;2022-12-07T07:58:22;97158.13;;;3.58;79.64
1401;BME280;46518;48.842;8.926;2022-12-07T08:00:50;97171.75;;;3.60;79.42
1401;BME280;46518;48.842;8.926;2022-12-07T08:03:19;97169.16;;;3.60;79.32
1401;BME280;46518;48.842;8.926;2022-12-07T08:05:47;97170.75;;;3.75;79.75
1401;BME280;46518;48.842;8.926;2022-12-07T08:08:15;97171.16;;;3.78;79.03
1401;BME280;46518;48.842;8.926;2022-12-07T08:10:43;97165.34;;;3.83;78.61
1401;BME280;46518;48.842;8.926;2022-12-07T08:13:15;97162.94;;;3.75;77.64
1401;BME280;46518;48.842;8.926;2022-12-07T08:15:45;97161.13;;;3.88;77.21
1401;BME280;46518;48.842;8.926;2022-12-07T08:18:14;97168.75;;;3.90;77.39
1401;BME280;46518;48.842;8.926;2022-12-07T08:20:43;97168.75;;;3.90;77.15
1401;BME280;46518;48.842;8.926;2022-12-07T08:23:11;97162.94;;;3.88;76.60
1401;BME280;46518;48.842;8.926;2022-12-07T08:25:40;97166.34;;;3.88;76.96
1401;BME280;46518;48.842;8.926;2022-12-07T08:28:08;97166.75;;;3.92;77.17
1401;BME280;46518;48.842;8.926;2022-12-07T08:30:38;97171.34;;;3.83;77.48
1401;BME280;46518;48.842;8.926;2022-12-07T08:33:06;97181.56;;;3.78;76.89
1401;BME280;46518;48.842;8.926;2022-12-07T08:35:34;97180.38;;;3.87;77.35
1401;BME280;46518;48.842;8.926;2022-12-07T08:38:03;97180.75;;;3.98;77.75
1401;BME280;46518;48.842;8.926;2022-12-07T08:40:31;97185.75;;;3.99;78.40
1401;BME280;46518;48.842;8.926;2022-12-07T08:42:59;97181.56;;;3.98;78.71
1401;BME280;46518;48.842;8.926;2022-12-07T08:45:28;97170.34;;;3.98;78.83
1401;BME280;46518;48.842;8.926;2022-12-07T08:48:05;97175.34;;;4.06;78.06
1401;BME280;46518;48.842;8.926;2022-12-07T08:50:34;97175.94;;;4.08;78.12
1401;BME280;46518;48.842;8.926;2022-12-07T08:53:05;97170.94;;;4.06;78.04
1401;BME280;46518;48.842;8.926;2022-12-07T08:55:34;97182.16;;;4.07;78.26
1401;BME280;46518;48.842;8.926;2022-12-07T08:58:03;97174.31;;;4.14;78.27
1401;BME280;46518;48.842;8.926;2022-12-07T09:00:31;97178.94;;;4.18;78.04
1401;BME280;46518;48.842;8.926;2022-12-07T09:03:01;97177.72;;;4.21;78.22
1401;BME280;46518;48.842;8.926;2022-12-07T09:05:29;97171.91;;;4.19;78.48
1401;BME280;46518;48.842;8.926;2022-12-07T09:08:00;97179.53;;;4.14;79.73
1401;BME280;46518;48.842;8.926;2022-12-07T09:10:29;97175.75;;;4.09;80.13
1401;BME280;46518;48.842;8.926;2022-12-07T09:12:58;97172.53;;;4.07;80.99
1401;BME280;46518;48.842;8.926;2022-12-07T09:15:27;97174.16;;;3.95;80.68
1401;BME280;46518;48.842;8.926;2022-12-07T09:17:56;97180.16;;;3.82;81.20
1401;BME280;46518;48.842;8.926;2022-12-07T09:20:26;97174.75;;;3.97;82.60
1401;BME280;46518;48.842;8.926;2022-12-07T09:22:54;97163.53;;;3.97;82.57
1401;BME280;46518;48.842;8.926;2022-12-07T09:25:23;97169.34;;;3.85;83.08
1401;BME280;46518;48.842;8.926;2022-12-07T09:27:55;97170.94;;;3.66;82.66
1401;BME280;46518;48.842;8.926;2022-12-07T09:30:23;97169.75;;;3.76;83.87
1401;BME280;46518;48.842;8.926;2022-12-07T09:32:53;97175.97;;;3.95;83.92
1401;BME280;46518;48.842;8.926;2022-12-07T09:35:22;97170.72;;;4.01;84.19
1401;BME280;46518;48.842;8.926;2022-12-07T09:37:52;97172.97;;;3.84;85.13
1401;BME280;46518;48.842;8.926;2022-12-07T09:40:21;97161.13;;;3.75;85.43
1401;BME280;46518;48.842;8.926;2022-12-07T09:42:52;97177.56;;;3.76;86.65
1401;BME280;46518;48.842;8.926;2022-12-07T09:45:23;97178.38;;;3.89;86.85
1401;BME280;46518;48.842;8.926;2022-12-07T09:47:52;97175.94;;;3.81;86.47
1401;BME280;46518;48.842;8.926;2022-12-07T09:50:24;97170.75;;;3.95;85.23
1401;BME280;46518;48.842;8.926;2022-12-07T09:53:06;97162.91;;;4.08;85.46
1401;BME280;46518;48.842;8.926;2022-12-07T09:55:36;97162.69;;;4.16;85.92
1401;BME280;46518;48.842;8.926;2022-12-07T09:58:06;97163.50;;;4.17;85.10
1401;BME280;46518;48.842;8.926;2022-12-07T10:00:34;97151.72;;;4.01;83.70
1401;BME280;46518;48.842;8.926;2022-12-07T10:03:02;97158.72;;;4.07;84.16
1401;BME280;46518;48.842;8.926;2022-12-07T10:05:33;97142.09;;;4.01;84.43
1401;BME280;46518;48.842;8.926;2022-12-07T10:08:04;97145.09;;;4.05;85.34
1401;BME280;46518;48.842;8.926;2022-12-07T10:10:53;97149.25;;;4.19;85.52
1401;BME280;46518;48.842;8.926;2022-12-07T10:13:35;97144.28;;;4.24;85.56
1401;BME280;46518;48.842;8.926;2022-12-07T10:16:04;97139.06;;;4.11;86.58
1401;BME280;46518;48.842;8.926;2022-12-07T10:18:35;97136.69;;;3.96;86.20
1401;BME280;46518;48.842;8.926;2022-12-07T10:21:15;97129.47;;;3.98;87.10
1401;BME280;46518;48.842;8.926;2022-12-07T10:24:02;97112.66;;;3.94;87.74
1401;BME280;46518;48.842;8.926;2022-12-07T10:26:33;97133.09;;;3.97;87.20
1401;BME280;46518;48.842;8.926;2022-12-07T10:29:14;97139.28;;;4.03;88.17
1401;BME280;46518;48.842;8.926;2022-12-07T10:31:44;97131.84;;;4.06;89.27
1401;BME280;46518;48.842;8.926;2022-12-07T10:34:21;97134.69;;;3.92;90.01
1401;BME280;46518;48.842;8.926;2022-12-07T10:36:52;97130.69;;;4.02;90.49
1401;BME280;46518;48.842;8.926;2022-12-07T10:39:25;97131.69;;;3.81;90.63
1401;BME280;46518;48.842;8.926;2022-12-07T10:42:01;97108.69;;;3.58;92.42
1401;BME280;46518;48.842;8.926;2022-12-07T10:44:31;97120.47;;;3.74;93.01
1401;BME280;46518;48.842;8.926;2022-12-07T10:47:11;97128.69;;;3.91;93.21
1401;BME280;46518;48.842;8.926;2022-12-07T10:50:12;97119.72;;;3.67;93.89
1401;BME280;46518;48.842;8.926;2022-12-07T10:55:56;97125.66;;;4.01;93.81
1401;BME280;46518;48.842;8.926;2022-12-07T10:58:39;97092.47;;;3.56;92.98
1401;BME280;46518;48.842;8.926;2022-12-07T11:01:23;97096.84;;;3.69;93.75
1401;BME280;46518;48.842;8.926;2022-12-07T11:04:15;97096.06;;;3.75;93.46
1401;BME280;46518;48.842;8.926;2022-12-07T11:06:52;97111.50;;;3.70;93.53
1401;BME280;46518;48.842;8.926;2022-12-07T11:09:39;97111.28;;;3.72;92.62
1401;BME280;46518;48.842;8.926;2022-12-07T11:12:42;97108.06;;;3.76;92.87
1401;BME280;46518;48.842;8.926;2022-12-07T11:15:17;97110.69;;;3.83;92.79
1401;BME280;46518;48.842;8.926;2022-12-07T11:17:53;97110.47;;;3.84;92.77
1401;BME280;46518;48.842;8.926;2022-12-07T11:20:39;97108.84;;;4.03;92.96
1401;BME280;46518;48.842;8.926;2022-12-07T11:23:20;97102.66;;;4.04;92.05
1401;BME280;46518;48.842;8.926;2022-12-07T11:25:54;97088.66;;;3.85;90.79
1401;BME280;46518;48.842;8.926;2022-12-07T11:28:41;97104.22;;;4.12;91.05
1401;BME280;46518;48.842;8.926;2022-12-07T11:31:23;97102.03;;;3.89;89.35
1401;BME280;46518;48.842;8.926;2022-12-07T11:34:00;97101.22;;;4.15;90.07
1401;BME280;46518;48.842;8.926;2022-12-07T11:36:38;97098.41;;;4.10;89.20
1401;BME280;46518;48.842;8.926;2022-12-07T11:39:16;97098.38;;;4.17;89.03
1401;BME280;46518;48.842;8.926;2022-12-07T11:41:52;97097.84;;;3.95;87.95
1401;BME280;46518;48.842;8.926;2022-12-07T11:44:31;97096.88;;;3.82;89.29
1401;BME280;46518;48.842;8.926;2022-12-07T11:47:06;97091.28;;;3.72;88.88
1401;BME280;46518;48.842;8.926;2022-12-07T11:49:43;97091.09;;;3.67;89.02
1401;BME280;46518;48.842;8.926;2022-12-07T11:52:18;97082.84;;;3.90;89.09
1401;BME280;46518;48.842;8.926;2022-12-07T11:54:51;97076.00;;;3.96;89.07
1401;BME280;46518;48.842;8.926;2022-12-07T11:57:25;97084.00;;;4.01;88.58
1401;BME280;46518;48.842;8.926;2022-12-07T12:00:06;97082.63;;;3.85;88.22
1401;BME280;46518;48.842;8.926;2022-12-07T12:02:46;97066.22;;;3.84;88.69
1401;BME280;46518;48.842;8.926;2022-12-07T12:05:19;97076.00;;;3.96;89.16
1401;BME280;46518;48.842;8.926;2022-12-07T12:07:54;97078.00;;;4.00;88.78
1401;BME280;46518;48.842;8.926;2022-12-07T12:10:55;97078.31;;;4.24;89.19
1401;BME280;46518;48.842;8.926;2022-12-07T12:13:51;97070.84;;;4.41;88.37
1401;BME280;46518;48.842;8.926;2022-12-07T12:20:00;97059.03;;;4.45;89.20
1401;BME280;46518;48.842;8.926;2022-12-07T12:22:55;97063.63;;;4.43;88.03
1401;BME280;46518;48.842;8.926;2022-12-07T12:25:28;97059.81;;;4.45;88.12
1401;BME280;46518;48.842;8.926;2022-12-07T12:27:59;97051.41;;;4.43;88.19
1401;BME280;46518;48.842;8.926;2022-12-07T12:30:33;97050.09;;;4.66;87.92
1401;BME280;46518;48.842;8.926;2022-12-07T12:33:05;97053.59;;;4.46;86.80
1401;BME280;46518;48.842;8.926;2022-12-07T12:35:36;97032.88;;;4.20;87.17
1401;BME280;46518;48.842;8.926;2022-12-07T12:38:27;97057.13;;;4.14;87.14
1401;BME280;46518;48.842;8.926;2022-12-07T12:41:00;97056.50;;;4.25;87.64
1401;BME280;46518;48.842;8.926;2022-12-07T12:43:47;97049.84;;;4.36;88.17
1401;BME280;46518;48.842;8.926;2022-12-07T12:46:48;97043.03;;;4.35;86.96
1401;BME280;46518;48.842;8.926;2022-12-07T12:49:42;97053.47;;;4.35;86.63
1401;BME280;46518;48.842;8.926;2022-12-07T12:55:22;97043.06;;;4.28;87.28
1401;BME280;46518;48.842;8.926;2022-12-07T12:58:29;97050.94;;;4.01;88.17
1401;BME280;46518;48.842;8.926;2022-12-07T13:01:36;97034.69;;;4.13;88.82
1401;BME280;46518;48.842;8.926;2022-12-07T13:07:53;97039.56;;;3.96;88.67
1401;BME280;46518;48.842;8.926;2022-12-07T13:10:35;97036.56;;;3.85;88.83
1401;BME280;46518;48.842;8.926;2022-12-07T13:13:34;97039.38;;;3.91;88.83
1401;BME280;46518;48.842;8.926;2022-12-07T13:16:37;97024.38;;;3.79;88.52
1401;BME280;46518;48.842;8.926;2022-12-07T13:22:49;97032.34;;;3.91;87.84
1401;BME280;46518;48.842;8.926;2022-12-07T13:25:36;97024.78;;;3.83;86.85
1401;BME280;46518;48.842;8.926;2022-12-07T13:28:33;97011.03;;;4.14;87.28
1401;BME280;46518;48.842;8.926;2022-12-07T13:31:30;97015.84;;;4.17;86.56
1401;BME280;46518;48.842;8.926;2022-12-07T13:34:00;97011.44;;;4.18;87.00
1401;BME280;46518;48.842;8.926;2022-12-07T13:36:30;97021.53;;;4.39;87.29
1401;BME280;46518;48.842;8.926;2022-12-07T13:39:18;97019.72;;;4.46;86.49
1401;BME280;46518;48.842;8.926;2022-12-07T13:41:52;97016.94;;;4.41;85.73
1401;BME280;46518;48.842;8.926;2022-12-07T13:44:23;97017.72;;;4.42;85.39
1401;BME280;46518;48.842;8.926;2022-12-07T13:46:59;97015.00;;;4.23;85.37
1401;BME280;46518;48.842;8.926;2022-12-07T13:49:31;97013.19;;;4.30;85.88
1401;BME280;46518;48.842;8.926;2022-12-07T13:52:15;97003.22;;;4.14;85.92
1401;BME280;46518;48.842;8.926;2022-12-07T13:54:46;97009.22;;;4.21;86.24
1401;BME280;46518;48.842;8.926;2022-12-07T13:57:17;97005.78;;;4.27;86.41
1401;BME280;46518;48.842;8.926;2022-12-07T13:59:46;97010.22;;;4.27;86.26
1401;BME280;46518;48.842;8.926;2022-12-07T14:02:21;97007.19;;;4.23;85.98
1401;BME280;46518;48.842;8.926;2022-12-07T14:05:07;97009.56;;;4.31;85.29
1401;BME280;46518;48.842;8.926;2022-12-07T14:07:48;97005.44;;;4.17;86.34
1401;BME280;46518;48.842;8.926;2022-12-07T14:10:25;97017.09;;;4.46;85.88
1401;BME280;46518;48.842;8.926;2022-12-07T14:12:57;97009.97;;;4.28;85.40
1401;BME280;46518;48.842;8.926;2022-12-07T14:15:27;97007.81;;;4.19;84.99